Time;durP1;ratioP1;P1;durP2;ratioP2;P2;SDS_P1;SDS_P2;PMS_P1;PMS_P2;Temp;Humidity;BMP_temperature;BMP_pressure;BME280_temperature;BME280_humidity;BME280_pressure;Samples;Min_cycle;Max_cycle;Signal;HPM_P1;HPM_P2
2022/07/01 00:00:12;;;;;;;6.3;5.65;;;;;;;17.48;84.20898;95120.98;;;;
2022/07/01 00:01:13;;;;;;;6.75;6.15;;;;;;;17.68;84.22559;95170.98;;;;
2022/07/01 00:02:14;;;;;;;6.75;6.15;;;;;;;17.68;84.22559;95170.98;;;;
2022/07/01 00:03:15;;;;;;;6.75;6.15;;;;;;;17.68;84.22559;95170.98;;;;
2022/07/01 00:04:16;;;;;;;6.75;6.15;;;;;;;17.68;84.22559;95170.98;;;;
2022/07/01 00:05:16;;;;;;;6.75;6.15;;;;;;;17.68;84.22559;95170.98;;;;
2022/07/01 00:06:17;;;;;;;6.75;6.15;;;;;;;17.68;84.22559;95170.98;;;;
2022/07/01 00:07:18;;;;;;;6.75;6.15;;;;;;;17.68;84.22559;95170.98;;;;
2022/07/01 00:08:18;;;;;;;6.75;6.15;;;;;;;17.68;84.22559;95170.98;;;;
2022/07/01 00:09:19;;;;;;;6.75;6.15;;;;;;;17.68;84.22559;95170.98;;;;
2022/07/01 00:10:20;;;;;;;6.75;6.15;;;;;;;17.68;84.22559;95170.98;;;;
2022/07/01 00:11:20;;;;;;;7.650001;6.85;;;;;;;18.03;84.22461;95160.61;;;;
2022/07/01 00:12:21;;;;;;;7.650001;6.85;;;;;;;18.03;84.22461;95160.61;;;;
2022/07/01 00:13:21;;;;;;;7.650001;6.85;;;;;;;18.03;84.22461;95160.61;;;;
2022/07/01 00:14:22;;;;;;;7.650001;6.85;;;;;;;18.03;84.22461;95160.61;;;;
2022/07/01 00:15:23;;;;;;;7.650001;6.85;;;;;;;18.03;84.22461;95160.61;;;;
2022/07/01 00:16:23;;;;;;;7.650001;6.85;;;;;;;18.03;84.22461;95160.61;;;;
2022/07/01 00:17:24;;;;;;;7.650001;6.85;;;;;;;18.03;84.22461;95160.61;;;;
2022/07/01 00:18:24;;;;;;;7.650001;6.85;;;;;;;18.03;84.22461;95160.61;;;;
2022/07/01 00:19:25;;;;;;;7.650001;6.85;;;;;;;18.03;84.22461;95160.61;;;;
2022/07/01 00:20:26;;;;;;;7.650001;6.85;;;;;;;18.03;84.22461;95160.61;;;;
2022/07/01 00:21:26;;;;;;;7.650001;6.85;;;;;;;18.03;84.22461;95160.61;;;;
2022/07/01 00:22:27;;;;;;;7.25;6.55;;;;;;;18.22;84.17383;95199.07;;;;
2022/07/01 00:23:28;;;;;;;7.25;6.55;;;;;;;18.22;84.17383;95199.07;;;;
2022/07/01 00:24:29;;;;;;;7.25;6.55;;;;;;;18.22;84.17383;95199.07;;;;
2022/07/01 00:25:29;;;;;;;7.25;6.55;;;;;;;18.22;84.17383;95199.07;;;;
2022/07/01 00:26:30;;;;;;;7.25;6.55;;;;;;;18.22;84.17383;95199.07;;;;
2022/07/01 00:27:30;;;;;;;7.25;6.55;;;;;;;18.22;84.17383;95199.07;;;;
2022/07/01 00:28:31;;;;;;;7.25;6.55;;;;;;;18.22;84.17383;95199.07;;;;
2022/07/01 00:29:33;;;;;;;7.25;6.55;;;;;;;18.22;84.17383;95199.07;;;;
2022/07/01 00:30:33;;;;;;;7.25;6.55;;;;;;;18.22;84.17383;95199.07;;;;
2022/07/01 00:31:34;;;;;;;7.25;6.55;;;;;;;18.22;84.17383;95199.07;;;;
2022/07/01 00:32:34;;;;;;;6.15;5.55;;;;;;;18.46;84.20703;95195.47;;;;
2022/07/01 00:33:36;;;;;;;6.15;5.55;;;;;;;18.46;84.20703;95195.47;;;;
2022/07/01 00:34:36;;;;;;;6.15;5.55;;;;;;;18.46;84.20703;95195.47;;;;
2022/07/01 00:35:37;;;;;;;6.15;5.55;;;;;;;18.46;84.20703;95195.47;;;;
2022/07/01 00:36:38;;;;;;;6.15;5.55;;;;;;;18.46;84.20703;95195.47;;;;
2022/07/01 00:37:38;;;;;;;6.15;5.55;;;;;;;18.46;84.20703;95195.47;;;;
2022/07/01 00:38:39;;;;;;;6.15;5.55;;;;;;;18.46;84.20703;95195.47;;;;
2022/07/01 00:39:39;;;;;;;6.15;5.55;;;;;;;18.46;84.20703;95195.47;;;;
2022/07/01 00:40:40;;;;;;;6.15;5.55;;;;;;;18.46;84.20703;95195.47;;;;
2022/07/01 00:41:40;;;;;;;6.15;5.55;;;;;;;18.46;84.20703;95195.47;;;;
2022/07/01 00:42:42;;;;;;;6.15;5.55;;;;;;;18.46;84.20703;95195.47;;;;
2022/07/01 00:43:42;;;;;;;6.9;5.800001;;;;;;;18.48;83.97266;95196.39;;;;
2022/07/01 00:44:43;;;;;;;6.9;5.800001;;;;;;;18.48;83.97266;95196.39;;;;
2022/07/01 00:45:43;;;;;;;6.9;5.800001;;;;;;;18.48;83.97266;95196.39;;;;
2022/07/01 00:46:47;;;;;;;6.9;5.800001;;;;;;;18.48;83.97266;95196.39;;;;
2022/07/01 00:47:50;;;;;;;6.9;5.800001;;;;;;;18.48;83.97266;95196.39;;;;
2022/07/01 00:48:50;;;;;;;6.9;5.800001;;;;;;;18.48;83.97266;95196.39;;;;
2022/07/01 00:49:54;;;;;;;6.9;5.800001;;;;;;;18.48;83.97266;95196.39;;;;
2022/07/01 00:50:54;;;;;;;6.9;5.800001;;;;;;;18.48;83.97266;95196.39;;;;
2022/07/01 00:51:55;;;;;;;6.9;5.800001;;;;;;;18.48;83.97266;95196.39;;;;
2022/07/01 00:52:56;;;;;;;6.9;5.800001;;;;;;;18.48;83.97266;95196.39;;;;
2022/07/01 00:53:58;;;;;;;4.800001;4.400001;;;;;;;18.48;83.93945;95199.07;;;;
2022/07/01 00:54:59;;;;;;;4.800001;4.400001;;;;;;;18.48;83.93945;95199.07;;;;
2022/07/01 00:56:03;;;;;;;4.800001;4.400001;;;;;;;18.48;83.93945;95199.07;;;;
2022/07/01 00:57:04;;;;;;;4.800001;4.400001;;;;;;;18.48;83.93945;95199.07;;;;
2022/07/01 00:58:07;;;;;;;4.800001;4.400001;;;;;;;18.48;83.93945;95199.07;;;;
2022/07/01 00:59:08;;;;;;;4.800001;4.400001;;;;;;;18.48;83.93945;95199.07;;;;
2022/07/01 01:00:09;;;;;;;4.800001;4.400001;;;;;;;18.48;83.93945;95199.07;;;;
2022/07/01 01:01:12;;;;;;;4.800001;4.400001;;;;;;;18.48;83.93945;95199.07;;;;
2022/07/01 01:02:13;;;;;;;4.800001;4.400001;;;;;;;18.48;83.93945;95199.07;;;;
2022/07/01 01:03:13;;;;;;;4.800001;4.400001;;;;;;;18.48;83.93945;95199.07;;;;
2022/07/01 01:04:14;;;;;;;4.800001;4.400001;;;;;;;18.48;83.93945;95199.07;;;;
2022/07/01 01:05:14;;;;;;;4.05;3.5;;;;;;;18.44;83.73438;95226.64;;;;
2022/07/01 01:06:15;;;;;;;4.05;3.5;;;;;;;18.44;83.73438;95226.64;;;;
2022/07/01 01:07:16;;;;;;;4.05;3.5;;;;;;;18.44;83.73438;95226.64;;;;
2022/07/01 01:08:17;;;;;;;4.05;3.5;;;;;;;18.44;83.73438;95226.64;;;;
2022/07/01 01:09:17;;;;;;;4.05;3.5;;;;;;;18.44;83.73438;95226.64;;;;
2022/07/01 01:10:18;;;;;;;4.05;3.5;;;;;;;18.44;83.73438;95226.64;;;;
2022/07/01 01:11:19;;;;;;;4.05;3.5;;;;;;;18.44;83.73438;95226.64;;;;
2022/07/01 01:12:20;;;;;;;4.05;3.5;;;;;;;18.44;83.73438;95226.64;;;;
2022/07/01 01:13:20;;;;;;;4.05;3.5;;;;;;;18.44;83.73438;95226.64;;;;
2022/07/01 01:14:21;;;;;;;4.05;3.5;;;;;;;18.44;83.73438;95226.64;;;;
2022/07/01 01:15:22;;;;;;;4;2.7;;;;;;;18.55;83.52734;95249.58;;;;
2022/07/01 01:16:23;;;;;;;4;2.7;;;;;;;18.55;83.52734;95249.58;;;;
2022/07/01 01:17:24;;;;;;;4;2.7;;;;;;;18.55;83.52734;95249.58;;;;
2022/07/01 01:18:25;;;;;;;4;2.7;;;;;;;18.55;83.52734;95249.58;;;;
2022/07/01 01:19:26;;;;;;;4;2.7;;;;;;;18.55;83.52734;95249.58;;;;
2022/07/01 01:20:26;;;;;;;4;2.7;;;;;;;18.55;83.52734;95249.58;;;;
2022/07/01 01:21:32;;;;;;;4;2.7;;;;;;;18.55;83.52734;95249.58;;;;
2022/07/01 01:22:33;;;;;;;4;2.7;;;;;;;18.55;83.52734;95249.58;;;;
2022/07/01 01:23:33;;;;;;;4;2.7;;;;;;;18.55;83.52734;95249.58;;;;
2022/07/01 01:24:34;;;;;;;4;2.7;;;;;;;18.55;83.52734;95249.58;;;;
2022/07/01 01:25:34;;;;;;;4;2.7;;;;;;;18.55;83.52734;95249.58;;;;
2022/07/01 01:26:35;;;;;;;1.85;1.75;;;;;;;18.57;83.0918;95237.67;;;;
2022/07/01 01:27:36;;;;;;;1.85;1.75;;;;;;;18.57;83.0918;95237.67;;;;
2022/07/01 01:28:37;;;;;;;1.85;1.75;;;;;;;18.57;83.0918;95237.67;;;;
2022/07/01 01:29:37;;;;;;;1.85;1.75;;;;;;;18.57;83.0918;95237.67;;;;
2022/07/01 01:30:38;;;;;;;1.85;1.75;;;;;;;18.57;83.0918;95237.67;;;;
2022/07/01 01:31:39;;;;;;;1.85;1.75;;;;;;;18.57;83.0918;95237.67;;;;
2022/07/01 01:32:40;;;;;;;1.85;1.75;;;;;;;18.57;83.0918;95237.67;;;;
2022/07/01 01:33:41;;;;;;;1.85;1.75;;;;;;;18.57;83.0918;95237.67;;;;
2022/07/01 01:34:42;;;;;;;1.85;1.75;;;;;;;18.57;83.0918;95237.67;;;;
2022/07/01 01:35:43;;;;;;;1.85;1.75;;;;;;;18.57;83.0918;95237.67;;;;
2022/07/01 01:36:43;;;;;;;1.7;1.6;;;;;;;18.59;82.7041;95217.18;;;;
2022/07/01 01:37:44;;;;;;;1.7;1.6;;;;;;;18.59;82.7041;95217.18;;;;
2022/07/01 01:38:45;;;;;;;1.7;1.6;;;;;;;18.59;82.7041;95217.18;;;;
2022/07/01 01:39:46;;;;;;;1.7;1.6;;;;;;;18.59;82.7041;95217.18;;;;
2022/07/01 01:40:46;;;;;;;1.7;1.6;;;;;;;18.59;82.7041;95217.18;;;;
2022/07/01 01:41:47;;;;;;;1.7;1.6;;;;;;;18.59;82.7041;95217.18;;;;
2022/07/01 01:42:47;;;;;;;1.7;1.6;;;;;;;18.59;82.7041;95217.18;;;;
2022/07/01 01:43:48;;;;;;;1.7;1.6;;;;;;;18.59;82.7041;95217.18;;;;
2022/07/01 01:44:48;;;;;;;1.7;1.6;;;;;;;18.59;82.7041;95217.18;;;;
2022/07/01 01:45:50;;;;;;;1.7;1.6;;;;;;;18.59;82.7041;95217.18;;;;
2022/07/01 01:46:50;;;;;;;1.7;1.6;;;;;;;18.59;82.7041;95217.18;;;;
2022/07/01 01:47:50;;;;;;;1.7;1.6;;;;;;;18.38;82.42383;95216.8;;;;
2022/07/01 01:48:52;;;;;;;1.7;1.6;;;;;;;18.38;82.42383;95216.8;;;;
2022/07/01 01:49:52;;;;;;;1.7;1.6;;;;;;;18.38;82.42383;95216.8;;;;
2022/07/01 01:50:53;;;;;;;1.7;1.6;;;;;;;18.38;82.42383;95216.8;;;;
2022/07/01 01:51:54;;;;;;;1.7;1.6;;;;;;;18.38;82.42383;95216.8;;;;
2022/07/01 01:52:56;;;;;;;1.7;1.6;;;;;;;18.38;82.42383;95216.8;;;;
2022/07/01 01:53:56;;;;;;;1.7;1.6;;;;;;;18.38;82.42383;95216.8;;;;
2022/07/01 01:54:57;;;;;;;1.7;1.6;;;;;;;18.38;82.42383;95216.8;;;;
2022/07/01 01:55:58;;;;;;;1.7;1.6;;;;;;;18.38;82.42383;95216.8;;;;
2022/07/01 01:56:58;;;;;;;1.7;1.6;;;;;;;18.38;82.42383;95216.8;;;;
2022/07/01 01:57:59;;;;;;;2.15;1.5;;;;;;;18.3;82.53906;95210.76;;;;
2022/07/01 01:58:59;;;;;;;2.15;1.5;;;;;;;18.3;82.53906;95210.76;;;;
2022/07/01 02:00:00;;;;;;;2.15;1.5;;;;;;;18.3;82.53906;95210.76;;;;
2022/07/01 02:01:01;;;;;;;2.15;1.5;;;;;;;18.3;82.53906;95210.76;;;;
2022/07/01 02:02:02;;;;;;;2.15;1.5;;;;;;;18.3;82.53906;95210.76;;;;
2022/07/01 02:03:03;;;;;;;2.15;1.5;;;;;;;18.3;82.53906;95210.76;;;;
2022/07/01 02:04:03;;;;;;;2.15;1.5;;;;;;;18.3;82.53906;95210.76;;;;
2022/07/01 02:05:04;;;;;;;2.15;1.5;;;;;;;18.3;82.53906;95210.76;;;;
2022/07/01 02:06:11;;;;;;;2.15;1.5;;;;;;;18.3;82.53906;95210.76;;;;
2022/07/01 02:07:14;;;;;;;2.15;1.5;;;;;;;18.3;82.53906;95210.76;;;;
2022/07/01 02:08:14;;;;;;;2.15;1.5;;;;;;;18.3;82.53906;95210.76;;;;
2022/07/01 02:09:15;;;;;;;1.7;1.55;;;;;;;18.23;82.53809;95206.58;;;;
2022/07/01 02:10:15;;;;;;;1.7;1.55;;;;;;;18.23;82.53809;95206.58;;;;
2022/07/01 02:11:16;;;;;;;1.7;1.55;;;;;;;18.23;82.53809;95206.58;;;;
2022/07/01 02:12:17;;;;;;;1.7;1.55;;;;;;;18.23;82.53809;95206.58;;;;
2022/07/01 02:13:17;;;;;;;1.7;1.55;;;;;;;18.23;82.53809;95206.58;;;;
2022/07/01 02:14:18;;;;;;;1.7;1.55;;;;;;;18.23;82.53809;95206.58;;;;
2022/07/01 02:15:18;;;;;;;1.7;1.55;;;;;;;18.23;82.53809;95206.58;;;;
2022/07/01 02:16:19;;;;;;;1.7;1.55;;;;;;;18.23;82.53809;95206.58;;;;
2022/07/01 02:17:19;;;;;;;1.7;1.55;;;;;;;18.23;82.53809;95206.58;;;;
2022/07/01 02:18:20;;;;;;;1.7;1.55;;;;;;;18.23;82.53809;95206.58;;;;
2022/07/01 02:19:20;;;;;;;1.6;1.5;;;;;;;18.25;82.57422;95229.88;;;;
2022/07/01 02:20:21;;;;;;;1.6;1.5;;;;;;;18.25;82.57422;95229.88;;;;
2022/07/01 02:21:22;;;;;;;1.6;1.5;;;;;;;18.25;82.57422;95229.88;;;;
2022/07/01 02:22:22;;;;;;;1.6;1.5;;;;;;;18.25;82.57422;95229.88;;;;
2022/07/01 02:23:23;;;;;;;1.6;1.5;;;;;;;18.25;82.57422;95229.88;;;;
2022/07/01 02:24:23;;;;;;;1.6;1.5;;;;;;;18.25;82.57422;95229.88;;;;
2022/07/01 02:25:24;;;;;;;1.6;1.5;;;;;;;18.25;82.57422;95229.88;;;;
2022/07/01 02:26:24;;;;;;;1.6;1.5;;;;;;;18.25;82.57422;95229.88;;;;
2022/07/01 02:27:25;;;;;;;1.6;1.5;;;;;;;18.25;82.57422;95229.88;;;;
2022/07/01 02:28:25;;;;;;;1.6;1.5;;;;;;;18.25;82.57422;95229.88;;;;
2022/07/01 02:29:26;;;;;;;1.6;1.5;;;;;;;18.25;82.57422;95229.88;;;;
2022/07/01 02:30:27;;;;;;;2.55;1.6;;;;;;;18.23;82.54688;95248.99;;;;
2022/07/01 02:31:28;;;;;;;2.55;1.6;;;;;;;18.23;82.54688;95248.99;;;;
2022/07/01 02:32:29;;;;;;;2.55;1.6;;;;;;;18.23;82.54688;95248.99;;;;
2022/07/01 02:33:29;;;;;;;2.55;1.6;;;;;;;18.23;82.54688;95248.99;;;;
2022/07/01 02:34:30;;;;;;;2.55;1.6;;;;;;;18.23;82.54688;95248.99;;;;
2022/07/01 02:35:30;;;;;;;2.55;1.6;;;;;;;18.23;82.54688;95248.99;;;;
2022/07/01 02:36:32;;;;;;;2.55;1.6;;;;;;;18.23;82.54688;95248.99;;;;
2022/07/01 02:37:33;;;;;;;2.55;1.6;;;;;;;18.23;82.54688;95248.99;;;;
2022/07/01 02:38:34;;;;;;;2.55;1.6;;;;;;;18.23;82.54688;95248.99;;;;
2022/07/01 02:39:35;;;;;;;2.55;1.6;;;;;;;18.23;82.54688;95248.99;;;;
2022/07/01 02:40:37;;;;;;;1.7;1.6;;;;;;;18.28;82.51367;95261.06;;;;
2022/07/01 02:42:22;;;;;;;1.7;1.6;;;;;;;18.28;82.51367;95261.06;;;;
2022/07/01 02:43:23;;;;;;;1.7;1.6;;;;;;;18.28;82.51367;95261.06;;;;
2022/07/01 02:44:23;;;;;;;1.7;1.6;;;;;;;18.28;82.51367;95261.06;;;;
2022/07/01 02:45:25;;;;;;;1.7;1.6;;;;;;;18.28;82.51367;95261.06;;;;
2022/07/01 02:46:25;;;;;;;1.7;1.6;;;;;;;18.28;82.51367;95261.06;;;;
2022/07/01 02:47:26;;;;;;;1.7;1.6;;;;;;;18.28;82.51367;95261.06;;;;
2022/07/01 02:48:31;;;;;;;1.7;1.6;;;;;;;18.28;82.51367;95261.06;;;;
2022/07/01 02:49:32;;;;;;;1.7;1.6;;;;;;;18.28;82.51367;95261.06;;;;
2022/07/01 02:50:32;;;;;;;1.7;1.6;;;;;;;18.28;82.51367;95261.06;;;;
2022/07/01 02:51:32;;;;;;;1.75;1.65;;;;;;;18.23;82.43945;95277.91;;;;
2022/07/01 02:52:34;;;;;;;1.75;1.65;;;;;;;18.23;82.43945;95277.91;;;;
2022/07/01 02:53:35;;;;;;;1.75;1.65;;;;;;;18.23;82.43945;95277.91;;;;
2022/07/01 02:54:36;;;;;;;1.75;1.65;;;;;;;18.23;82.43945;95277.91;;;;
2022/07/01 02:55:36;;;;;;;1.75;1.65;;;;;;;18.23;82.43945;95277.91;;;;
2022/07/01 02:56:37;;;;;;;1.75;1.65;;;;;;;18.23;82.43945;95277.91;;;;
2022/07/01 02:57:37;;;;;;;1.75;1.65;;;;;;;18.23;82.43945;95277.91;;;;
2022/07/01 02:58:39;;;;;;;1.75;1.65;;;;;;;18.23;82.43945;95277.91;;;;
2022/07/01 02:59:40;;;;;;;1.75;1.65;;;;;;;18.23;82.43945;95277.91;;;;
2022/07/01 03:00:40;;;;;;;1.75;1.65;;;;;;;18.23;82.43945;95277.91;;;;
2022/07/01 03:01:41;;;;;;;1.6;1.5;;;;;;;18.23;82.53809;95271.21;;;;
2022/07/01 03:02:41;;;;;;;1.6;1.5;;;;;;;18.23;82.53809;95271.21;;;;
2022/07/01 03:03:42;;;;;;;1.6;1.5;;;;;;;18.23;82.53809;95271.21;;;;
2022/07/01 03:04:42;;;;;;;1.6;1.5;;;;;;;18.23;82.53809;95271.21;;;;
2022/07/01 03:05:43;;;;;;;1.6;1.5;;;;;;;18.23;82.53809;95271.21;;;;
2022/07/01 03:06:43;;;;;;;1.6;1.5;;;;;;;18.23;82.53809;95271.21;;;;
2022/07/01 03:07:44;;;;;;;1.6;1.5;;;;;;;18.23;82.53809;95271.21;;;;
2022/07/01 03:08:44;;;;;;;1.6;1.5;;;;;;;18.23;82.53809;95271.21;;;;
2022/07/01 03:09:45;;;;;;;1.6;1.5;;;;;;;18.23;82.53809;95271.21;;;;
2022/07/01 03:10:45;;;;;;;1.6;1.5;;;;;;;18.23;82.53809;95271.21;;;;
2022/07/01 03:11:46;;;;;;;1.6;1.5;;;;;;;18.23;82.53809;95271.21;;;;
2022/07/01 03:12:46;;;;;;;3.7;1.7;;;;;;;18.16;82.54785;95277.31;;;;
2022/07/01 03:13:47;;;;;;;3.7;1.7;;;;;;;18.16;82.54785;95277.31;;;;
2022/07/01 03:14:47;;;;;;;3.7;1.7;;;;;;;18.16;82.54785;95277.31;;;;
2022/07/01 03:15:48;;;;;;;3.7;1.7;;;;;;;18.16;82.54785;95277.31;;;;
2022/07/01 03:16:48;;;;;;;3.7;1.7;;;;;;;18.16;82.54785;95277.31;;;;
2022/07/01 03:17:49;;;;;;;3.7;1.7;;;;;;;18.16;82.54785;95277.31;;;;
2022/07/01 03:18:49;;;;;;;3.7;1.7;;;;;;;18.16;82.54785;95277.31;;;;
2022/07/01 03:19:51;;;;;;;3.7;1.7;;;;;;;18.16;82.54785;95277.31;;;;
2022/07/01 03:20:53;;;;;;;3.7;1.7;;;;;;;18.16;82.54785;95277.31;;;;
2022/07/01 03:21:53;;;;;;;3.7;1.7;;;;;;;18.16;82.54785;95277.31;;;;
2022/07/01 03:22:54;;;;;;;3.7;1.7;;;;;;;18.16;82.54785;95277.31;;;;
2022/07/01 03:23:54;;;;;;;2.95;1.7;;;;;;;18.19;82.61816;95290.17;;;;
2022/07/01 03:24:55;;;;;;;2.95;1.7;;;;;;;18.19;82.61816;95290.17;;;;
2022/07/01 03:25:56;;;;;;;2.95;1.7;;;;;;;18.19;82.61816;95290.17;;;;
2022/07/01 03:26:56;;;;;;;2.95;1.7;;;;;;;18.19;82.61816;95290.17;;;;
2022/07/01 03:27:57;;;;;;;2.95;1.7;;;;;;;18.19;82.61816;95290.17;;;;
2022/07/01 03:28:57;;;;;;;2.95;1.7;;;;;;;18.19;82.61816;95290.17;;;;
2022/07/01 03:29:58;;;;;;;2.95;1.7;;;;;;;18.19;82.61816;95290.17;;;;
2022/07/01 03:30:59;;;;;;;2.95;1.7;;;;;;;18.19;82.61816;95290.17;;;;
2022/07/01 03:31:59;;;;;;;2.95;1.7;;;;;;;18.19;82.61816;95290.17;;;;
2022/07/01 03:33:00;;;;;;;2.95;1.7;;;;;;;18.19;82.61816;95290.17;;;;
2022/07/01 03:34:01;;;;;;;1.85;1.7;;;;;;;18.12;82.59473;95289.61;;;;
2022/07/01 03:35:35;;;;;;;1.85;1.7;;;;;;;18.12;82.59473;95289.61;;;;
2022/07/01 03:36:36;;;;;;;1.85;1.7;;;;;;;18.12;82.59473;95289.61;;;;
2022/07/01 03:37:36;;;;;;;1.85;1.7;;;;;;;18.12;82.59473;95289.61;;;;
2022/07/01 03:38:37;;;;;;;1.85;1.7;;;;;;;18.12;82.59473;95289.61;;;;
2022/07/01 03:39:37;;;;;;;1.85;1.7;;;;;;;18.12;82.59473;95289.61;;;;
2022/07/01 03:40:39;;;;;;;1.85;1.7;;;;;;;18.12;82.59473;95289.61;;;;
2022/07/01 03:41:39;;;;;;;1.85;1.7;;;;;;;18.12;82.59473;95289.61;;;;
2022/07/01 03:42:40;;;;;;;1.85;1.7;;;;;;;18.12;82.59473;95289.61;;;;
2022/07/01 03:43:40;;;;;;;1.85;1.7;;;;;;;18.12;82.59473;95289.61;;;;
2022/07/01 03:44:41;;;;;;;2;1.75;;;;;;;18.13;82.69336;95278.25;;;;
2022/07/01 03:45:41;;;;;;;2;1.75;;;;;;;18.13;82.69336;95278.25;;;;
2022/07/01 03:46:42;;;;;;;2;1.75;;;;;;;18.13;82.69336;95278.25;;;;
2022/07/01 03:47:42;;;;;;;2;1.75;;;;;;;18.13;82.69336;95278.25;;;;
2022/07/01 03:48:46;;;;;;;2;1.75;;;;;;;18.13;82.69336;95278.25;;;;
2022/07/01 03:49:46;;;;;;;2;1.75;;;;;;;18.13;82.69336;95278.25;;;;
2022/07/01 03:50:47;;;;;;;2;1.75;;;;;;;18.13;82.69336;95278.25;;;;
2022/07/01 03:51:47;;;;;;;2;1.75;;;;;;;18.13;82.69336;95278.25;;;;
2022/07/01 03:52:48;;;;;;;2;1.75;;;;;;;18.13;82.69336;95278.25;;;;
2022/07/01 03:54:54;;;;;;;2;1.75;;;;;;;18.13;82.69336;95278.25;;;;
2022/07/01 03:55:54;;;;;;;1.85;1.7;;;;;;;18.11;82.69043;95301.76;;;;
2022/07/01 03:56:55;;;;;;;1.85;1.7;;;;;;;18.11;82.69043;95301.76;;;;
2022/07/01 03:57:55;;;;;;;1.85;1.7;;;;;;;18.11;82.69043;95301.76;;;;
2022/07/01 03:58:56;;;;;;;1.85;1.7;;;;;;;18.11;82.69043;95301.76;;;;
2022/07/01 03:59:56;;;;;;;1.85;1.7;;;;;;;18.11;82.69043;95301.76;;;;
2022/07/01 04:00:57;;;;;;;1.85;1.7;;;;;;;18.11;82.69043;95301.76;;;;
2022/07/01 04:01:57;;;;;;;1.85;1.7;;;;;;;18.11;82.69043;95301.76;;;;
2022/07/01 04:02:59;;;;;;;1.85;1.7;;;;;;;18.11;82.69043;95301.76;;;;
2022/07/01 04:03:59;;;;;;;1.85;1.7;;;;;;;18.11;82.69043;95301.76;;;;
2022/07/01 04:05:00;;;;;;;1.85;1.7;;;;;;;18.11;82.69043;95301.76;;;;
2022/07/01 04:06:00;;;;;;;2;1.9;;;;;;;18.19;82.78223;95305.3;;;;
2022/07/01 04:07:01;;;;;;;2;1.9;;;;;;;18.19;82.78223;95305.3;;;;
2022/07/01 04:08:06;;;;;;;2;1.9;;;;;;;18.19;82.78223;95305.3;;;;
2022/07/01 04:09:07;;;;;;;2;1.9;;;;;;;18.19;82.78223;95305.3;;;;
2022/07/01 04:10:08;;;;;;;2;1.9;;;;;;;18.19;82.78223;95305.3;;;;
2022/07/01 04:11:09;;;;;;;2;1.9;;;;;;;18.19;82.78223;95305.3;;;;
2022/07/01 04:12:11;;;;;;;2;1.9;;;;;;;18.19;82.78223;95305.3;;;;
2022/07/01 04:13:11;;;;;;;2;1.9;;;;;;;18.19;82.78223;95305.3;;;;
2022/07/01 04:14:12;;;;;;;2;1.9;;;;;;;18.19;82.78223;95305.3;;;;
2022/07/01 04:15:13;;;;;;;2;1.9;;;;;;;18.19;82.78223;95305.3;;;;
2022/07/01 04:16:14;;;;;;;2;1.9;;;;;;;18.19;82.78223;95305.3;;;;
2022/07/01 04:17:14;;;;;;;1.9;1.8;;;;;;;18.21;82.75098;95300.62;;;;
2022/07/01 04:18:15;;;;;;;1.9;1.8;;;;;;;18.21;82.75098;95300.62;;;;
2022/07/01 04:19:16;;;;;;;1.9;1.8;;;;;;;18.21;82.75098;95300.62;;;;
2022/07/01 04:20:17;;;;;;;1.9;1.8;;;;;;;18.21;82.75098;95300.62;;;;
2022/07/01 04:26:30;;;;;;;1.9;1.8;;;;;;;18.21;82.75098;95300.62;;;;
2022/07/01 04:27:31;;;;;;;2.2;1.6;;;;;;;18.23;82.75781;95256.9;;;;
2022/07/01 04:28:31;;;;;;;2.2;1.6;;;;;;;18.23;82.75781;95256.9;;;;
2022/07/01 04:29:32;;;;;;;2.2;1.6;;;;;;;18.23;82.75781;95256.9;;;;
2022/07/01 04:30:32;;;;;;;2.2;1.6;;;;;;;18.23;82.75781;95256.9;;;;
2022/07/01 04:31:33;;;;;;;2.2;1.6;;;;;;;18.23;82.75781;95256.9;;;;
2022/07/01 04:32:33;;;;;;;2.2;1.6;;;;;;;18.23;82.75781;95256.9;;;;
2022/07/01 04:33:34;;;;;;;2.2;1.6;;;;;;;18.23;82.75781;95256.9;;;;
2022/07/01 04:34:34;;;;;;;2.2;1.6;;;;;;;18.23;82.75781;95256.9;;;;
2022/07/01 04:35:36;;;;;;;2.2;1.6;;;;;;;18.23;82.75781;95256.9;;;;
2022/07/01 04:36:36;;;;;;;2.2;1.6;;;;;;;18.23;82.75781;95256.9;;;;
2022/07/01 04:37:37;;;;;;;2.2;1.6;;;;;;;18.23;82.75781;95256.9;;;;
2022/07/01 04:38:37;;;;;;;2.7;2;;;;;;;18.18;82.74609;95273.04;;;;
2022/07/01 04:39:38;;;;;;;2.7;2;;;;;;;18.18;82.74609;95273.04;;;;
2022/07/01 04:40:38;;;;;;;2.7;2;;;;;;;18.18;82.74609;95273.04;;;;
2022/07/01 04:42:12;;;;;;;2.7;2;;;;;;;18.18;82.74609;95273.04;;;;
2022/07/01 04:43:12;;;;;;;2.7;2;;;;;;;18.18;82.74609;95273.04;;;;
2022/07/01 04:44:13;;;;;;;2.7;2;;;;;;;18.18;82.74609;95273.04;;;;
2022/07/01 04:45:14;;;;;;;2.7;2;;;;;;;18.18;82.74609;95273.04;;;;
2022/07/01 04:46:15;;;;;;;2.7;2;;;;;;;18.18;82.74609;95273.04;;;;
2022/07/01 04:47:15;;;;;;;2.7;2;;;;;;;18.18;82.74609;95273.04;;;;
2022/07/01 04:48:16;;;;;;;2.7;2;;;;;;;18.18;82.74609;95273.04;;;;
2022/07/01 04:49:16;;;;;;;1.9;1.8;;;;;;;18.3;82.92285;95268.16;;;;
2022/07/01 04:50:17;;;;;;;1.9;1.8;;;;;;;18.3;82.92285;95268.16;;;;
2022/07/01 04:51:17;;;;;;;1.9;1.8;;;;;;;18.3;82.92285;95268.16;;;;
2022/07/01 04:52:18;;;;;;;1.9;1.8;;;;;;;18.3;82.92285;95268.16;;;;
2022/07/01 04:53:18;;;;;;;1.9;1.8;;;;;;;18.3;82.92285;95268.16;;;;
2022/07/01 04:54:19;;;;;;;1.9;1.8;;;;;;;18.3;82.92285;95268.16;;;;
2022/07/01 04:55:19;;;;;;;1.9;1.8;;;;;;;18.3;82.92285;95268.16;;;;
2022/07/01 04:56:20;;;;;;;1.9;1.8;;;;;;;18.3;82.92285;95268.16;;;;
2022/07/01 04:57:20;;;;;;;1.9;1.8;;;;;;;18.3;82.92285;95268.16;;;;
2022/07/01 04:58:21;;;;;;;1.9;1.8;;;;;;;18.3;82.92285;95268.16;;;;
2022/07/01 04:59:21;;;;;;;2.05;1.9;;;;;;;18.42;82.79102;95212.7;;;;
2022/07/01 05:00:23;;;;;;;2.05;1.9;;;;;;;18.42;82.79102;95212.7;;;;
2022/07/01 05:01:24;;;;;;;2.05;1.9;;;;;;;18.42;82.79102;95212.7;;;;
2022/07/01 05:02:24;;;;;;;2.05;1.9;;;;;;;18.42;82.79102;95212.7;;;;
2022/07/01 05:03:25;;;;;;;2.05;1.9;;;;;;;18.42;82.79102;95212.7;;;;
2022/07/01 05:04:27;;;;;;;2.05;1.9;;;;;;;18.42;82.79102;95212.7;;;;
2022/07/01 05:05:28;;;;;;;2.05;1.9;;;;;;;18.42;82.79102;95212.7;;;;
2022/07/01 05:06:28;;;;;;;2.05;1.9;;;;;;;18.42;82.79102;95212.7;;;;
2022/07/01 05:07:29;;;;;;;2.05;1.9;;;;;;;18.42;82.79102;95212.7;;;;
2022/07/01 05:08:30;;;;;;;2.05;1.9;;;;;;;18.42;82.79102;95212.7;;;;
2022/07/01 05:09:30;;;;;;;2.05;1.9;;;;;;;18.42;82.79102;95212.7;;;;
2022/07/01 05:10:31;;;;;;;2.2;2;;;;;;;18.58;82.82227;95259.36;;;;
2022/07/01 05:11:31;;;;;;;2.2;2;;;;;;;18.58;82.82227;95259.36;;;;
2022/07/01 05:12:32;;;;;;;2.2;2;;;;;;;18.58;82.82227;95259.36;;;;
2022/07/01 05:13:33;;;;;;;2.2;2;;;;;;;18.58;82.82227;95259.36;;;;
2022/07/01 05:14:34;;;;;;;2.2;2;;;;;;;18.58;82.82227;95259.36;;;;
2022/07/01 05:15:35;;;;;;;2.2;2;;;;;;;18.58;82.82227;95259.36;;;;
2022/07/01 05:16:35;;;;;;;2.2;2;;;;;;;18.58;82.82227;95259.36;;;;
2022/07/01 05:22:49;;;;;;;2.2;2;;;;;;;18.77;82.7373;95275.22;;;;
2022/07/01 05:23:50;;;;;;;2.2;2;;;;;;;18.77;82.7373;95275.22;;;;
2022/07/01 05:24:50;;;;;;;2.2;2;;;;;;;18.77;82.7373;95275.22;;;;
2022/07/01 05:25:51;;;;;;;2.2;2;;;;;;;18.77;82.7373;95275.22;;;;
2022/07/01 05:26:51;;;;;;;2.2;2;;;;;;;18.77;82.7373;95275.22;;;;
2022/07/01 05:27:52;;;;;;;2.2;2;;;;;;;18.77;82.7373;95275.22;;;;
2022/07/01 05:28:52;;;;;;;2.2;2;;;;;;;18.77;82.7373;95275.22;;;;
2022/07/01 05:29:53;;;;;;;2.2;2;;;;;;;18.77;82.7373;95275.22;;;;
2022/07/01 05:30:54;;;;;;;2.2;2;;;;;;;18.77;82.7373;95275.22;;;;
2022/07/01 05:31:55;;;;;;;2.35;2;;;;;;;19.24;82.44043;95237.02;;;;
2022/07/01 05:32:55;;;;;;;2.35;2;;;;;;;19.24;82.44043;95237.02;;;;
2022/07/01 05:33:56;;;;;;;2.35;2;;;;;;;19.24;82.44043;95237.02;;;;
2022/07/01 05:34:56;;;;;;;2.35;2;;;;;;;19.24;82.44043;95237.02;;;;
2022/07/01 05:35:57;;;;;;;2.35;2;;;;;;;19.24;82.44043;95237.02;;;;
2022/07/01 05:36:57;;;;;;;2.35;2;;;;;;;19.24;82.44043;95237.02;;;;
2022/07/01 05:37:58;;;;;;;2.35;2;;;;;;;19.24;82.44043;95237.02;;;;
2022/07/01 05:38:59;;;;;;;2.35;2;;;;;;;19.24;82.44043;95237.02;;;;
2022/07/01 05:39:59;;;;;;;2.35;2;;;;;;;19.24;82.44043;95237.02;;;;
2022/07/01 05:41:00;;;;;;;2.35;2;;;;;;;19.24;82.44043;95237.02;;;;
2022/07/01 05:42:00;;;;;;;2.1;1.9;;;;;;;19.22;82.45703;95285.28;;;;
2022/07/01 05:43:01;;;;;;;2.1;1.9;;;;;;;19.22;82.45703;95285.28;;;;
2022/07/01 05:44:02;;;;;;;2.1;1.9;;;;;;;19.22;82.45703;95285.28;;;;
2022/07/01 05:45:02;;;;;;;2.1;1.9;;;;;;;19.22;82.45703;95285.28;;;;
2022/07/01 05:46:03;;;;;;;2.1;1.9;;;;;;;19.22;82.45703;95285.28;;;;
2022/07/01 05:47:04;;;;;;;2.1;1.9;;;;;;;19.22;82.45703;95285.28;;;;
2022/07/01 05:48:05;;;;;;;2.1;1.9;;;;;;;19.22;82.45703;95285.28;;;;
2022/07/01 05:49:05;;;;;;;2.1;1.9;;;;;;;19.22;82.45703;95285.28;;;;
2022/07/01 05:50:06;;;;;;;2.1;1.9;;;;;;;19.22;82.45703;95285.28;;;;
2022/07/01 05:51:08;;;;;;;2.1;1.9;;;;;;;19.22;82.45703;95285.28;;;;
2022/07/01 05:52:08;;;;;;;2.1;1.9;;;;;;;19.22;82.45703;95285.28;;;;
2022/07/01 05:53:09;;;;;;;2.1;2;;;;;;;19.47;82.44922;95323.83;;;;
2022/07/01 05:54:09;;;;;;;2.1;2;;;;;;;19.47;82.44922;95323.83;;;;
2022/07/01 05:55:10;;;;;;;2.1;2;;;;;;;19.47;82.44922;95323.83;;;;
2022/07/01 05:56:10;;;;;;;2.1;2;;;;;;;19.47;82.44922;95323.83;;;;
2022/07/01 05:57:11;;;;;;;2.1;2;;;;;;;19.47;82.44922;95323.83;;;;
2022/07/01 05:58:11;;;;;;;2.1;2;;;;;;;19.47;82.44922;95323.83;;;;
2022/07/01 05:59:14;;;;;;;2.1;2;;;;;;;19.47;82.44922;95323.83;;;;
2022/07/01 06:00:14;;;;;;;2.1;2;;;;;;;19.47;82.44922;95323.83;;;;
2022/07/01 06:01:15;;;;;;;2.1;2;;;;;;;19.47;82.44922;95323.83;;;;
2022/07/01 06:02:16;;;;;;;2.1;2;;;;;;;19.47;82.44922;95323.83;;;;
2022/07/01 06:03:17;;;;;;;2.4;2.2;;;;;;;19.95;81.80469;95310.31;;;;
2022/07/01 06:04:17;;;;;;;2.4;2.2;;;;;;;19.95;81.80469;95310.31;;;;